Yong Hong 9 — V3ZW5 — position and weather

sailwx.info

Track history (hours):
 
Tides and Currents Weather Stations Pressure Air Temp Water Temp Dewpoint Dewpoint Depression Visibility Wind Speed Wind Dir Waves Ship Positions

Yong Hong 9

Last reported at 2017-Oct-31 16:09 UTC. Time now 2017-Nov-20 13:35 UTC.
Position N 31°02' E 122°16'.
Warning: this ship's position is 19 days out of date.

Length 95 m; draft 6 m.

Type: Cargo ship. MMSI: 312432000.

Date/timePositionNaut miles runAvg speedWind from/ knotsBaromVisibWave heightAir tempDewpointWater temp
2017-Oct-31 16:09N 31°02' E 122°16'210.9
2017-Oct-31 15:57N 31°03' E 122°13'510.1
2017-Oct-31 15:30N 31°03' E 122°08'5 9.8
2017-Oct-31 15:00N 31°04' E 122°02'7 9.2
2017-Oct-31 14:15N 31°08' E 121°55'5 8.6
2017-Oct-31 13:40N 31°11' E 121°51'2 7.8
2017-Oct-31 13:27N 31°12' E 121°49'4 7.6
2017-Oct-31 12:59N 31°15' E 121°47'4 7.2
2017-Oct-31 12:30N 31°17' E 121°44'4 7.2
2017-Oct-31 12:00N 31°20' E 121°41'4 7.6
2017-Oct-31 11:30N 31°22' E 121°37'4 8.6
2017-Oct-31 11:00N 31°24' E 121°33'5 9.0
2017-Oct-31 10:30N 31°27' E 121°29'510.1
2017-Oct-31 10:00N 31°30' E 121°24'510.6
2017-Oct-31 09:30N 31°33' E 121°19'611.5
2017-Oct-31 09:00N 31°38' E 121°15'  
2017-Oct-25 08:44N 31°43' E 121°07'210.8
2017-Oct-25 08:30N 31°42' E 121°10'511.0
2017-Oct-25 08:00N 31°38' E 121°15'611.2
2017-Oct-25 07:31N 31°34' E 121°19'611.1
2017-Oct-25 07:01N 31°31' E 121°24'611.2
2017-Oct-25 06:31N 31°27' E 121°29'4 8.5
2017-Oct-25 06:00N 31°24' E 121°33'510.5
2017-Oct-25 05:31N 31°22' E 121°38'5 9.1
2017-Oct-25 05:01N 31°19' E 121°42'1511.4
2017-Oct-25 03:43N 31°09' E 121°55'5 9.9
2017-Oct-25 03:14N 31°06' E 121°59'310.8
2017-Oct-25 03:00N 31°05' E 122°02'612.1
2017-Oct-25 02:29N 31°03' E 122°09'  
Track history (hours):
 
Tides and Currents Weather Stations Pressure Air Temp Water Temp Dewpoint Dewpoint Depression Visibility Wind Speed Wind Dir Waves Ship Positions

Yong Hong 9

Last reported at 2017-Oct-31 16:09 UTC. Time now 2017-Nov-20 13:35 UTC.
Position N 31°02' E 122°16'.
Warning: this ship's position is 19 days out of date.

Length 95 m; draft 6 m.

Type: Cargo ship. MMSI: 312432000.

Date/timePositionNaut miles runAvg speedWind from/ knotsBaromVisibWave heightAir tempDewpointWater temp
2017-Oct-31 16:09N 31°02' E 122°16'210.9
2017-Oct-31 15:57N 31°03' E 122°13'510.1
2017-Oct-31 15:30N 31°03' E 122°08'5 9.8
2017-Oct-31 15:00N 31°04' E 122°02'7 9.2
2017-Oct-31 14:15N 31°08' E 121°55'5 8.6
2017-Oct-31 13:40N 31°11' E 121°51'2 7.8
2017-Oct-31 13:27N 31°12' E 121°49'4 7.6
2017-Oct-31 12:59N 31°15' E 121°47'4 7.2
2017-Oct-31 12:30N 31°17' E 121°44'4 7.2
2017-Oct-31 12:00N 31°20' E 121°41'4 7.6
2017-Oct-31 11:30N 31°22' E 121°37'4 8.6
2017-Oct-31 11:00N 31°24' E 121°33'5 9.0
2017-Oct-31 10:30N 31°27' E 121°29'510.1
2017-Oct-31 10:00N 31°30' E 121°24'510.6
2017-Oct-31 09:30N 31°33' E 121°19'611.5
2017-Oct-31 09:00N 31°38' E 121°15'  
2017-Oct-25 08:44N 31°43' E 121°07'210.8
2017-Oct-25 08:30N 31°42' E 121°10'511.0
2017-Oct-25 08:00N 31°38' E 121°15'611.2
2017-Oct-25 07:31N 31°34' E 121°19'611.1
2017-Oct-25 07:01N 31°31' E 121°24'611.2
2017-Oct-25 06:31N 31°27' E 121°29'4 8.5
2017-Oct-25 06:00N 31°24' E 121°33'510.5
2017-Oct-25 05:31N 31°22' E 121°38'5 9.1
2017-Oct-25 05:01N 31°19' E 121°42'1511.4
2017-Oct-25 03:43N 31°09' E 121°55'5 9.9
2017-Oct-25 03:14N 31°06' E 121°59'310.8
2017-Oct-25 03:00N 31°05' E 122°02'612.1
2017-Oct-25 02:29N 31°03' E 122°09'  

Dump ship's entire track history